createdAt,value
2022-12-01T00:01:36.309Z,6.80
2022-12-01T00:04:05.344Z,10.70
2022-12-01T00:06:33.509Z,9.10
2022-12-01T00:09:20.545Z,7.50
2022-12-01T00:11:49.162Z,6.70
2022-12-01T00:14:18.052Z,5.80
2022-12-01T00:16:46.422Z,6.00
2022-12-01T00:19:14.709Z,5.50
2022-12-01T00:21:42.992Z,6.00
2022-12-01T00:24:12.183Z,5.60
2022-12-01T00:29:09.457Z,5.10
2022-12-01T00:31:37.734Z,5.90
2022-12-01T00:34:11.007Z,6.40
2022-12-01T00:36:39.915Z,6.60
2022-12-01T00:39:09.321Z,6.60
2022-12-01T00:44:05.871Z,6.30
2022-12-01T00:46:34.147Z,6.00
2022-12-01T00:49:02.425Z,6.80
2022-12-01T00:51:30.704Z,5.50
2022-12-01T00:53:58.775Z,6.10
2022-12-01T00:56:27.156Z,6.40
2022-12-01T00:58:55.196Z,5.10
2022-12-01T01:01:23.745Z,6.70
2022-12-01T01:03:51.880Z,7.00
2022-12-01T01:06:19.962Z,5.80
2022-12-01T01:08:47.999Z,6.70
2022-12-01T01:11:16.197Z,7.00
2022-12-01T01:13:44.269Z,4.80
2022-12-01T01:16:16.862Z,5.00
2022-12-01T01:18:45.329Z,6.00
2022-12-01T01:21:21.279Z,5.30
2022-12-01T01:23:51.408Z,3.40
2022-12-01T01:26:25.518Z,5.40
2022-12-01T01:28:56.560Z,5.20
2022-12-01T01:31:26.476Z,7.10
2022-12-01T01:33:56.731Z,5.30
2022-12-01T01:36:25.914Z,5.00
2022-12-01T01:38:55.327Z,5.00
2022-12-01T01:41:24.498Z,4.70
2022-12-01T01:44:00.045Z,5.30
2022-12-01T01:46:35.447Z,5.00
2022-12-01T01:49:08.434Z,5.00
2022-12-01T01:51:39.621Z,5.40
2022-12-01T01:54:31.585Z,5.10
2022-12-01T01:57:01.979Z,4.70
2022-12-01T01:59:37.220Z,5.50
2022-12-01T02:02:08.701Z,6.60
2022-12-01T02:04:40.946Z,4.80
2022-12-01T02:07:11.801Z,6.10
2022-12-01T02:09:40.053Z,6.90
2022-12-01T02:12:26.473Z,6.10
2022-12-01T02:15:24.123Z,4.60
2022-12-01T02:18:38.504Z,4.80
2022-12-01T02:21:21.659Z,4.90
2022-12-01T02:24:08.517Z,5.20
2022-12-01T02:27:00.966Z,5.10
2022-12-01T02:29:38.397Z,5.40
2022-12-01T02:32:06.525Z,5.90
2022-12-01T02:34:46.579Z,5.90
2022-12-01T02:37:38.535Z,7.20
2022-12-01T02:40:20.507Z,6.50
2022-12-01T02:43:28.226Z,5.80
2022-12-01T02:46:07.878Z,6.20
2022-12-01T02:48:39.814Z,6.30
2022-12-01T02:51:30.537Z,7.00
2022-12-01T02:54:00.843Z,6.90
2022-12-01T02:56:30.039Z,6.80
2022-12-01T02:58:58.227Z,5.10
2022-12-01T03:01:54.735Z,7.30
2022-12-01T03:04:35.117Z,8.70
2022-12-01T03:07:41.202Z,5.80
2022-12-01T03:10:27.988Z,7.60
2022-12-01T03:13:14.338Z,7.40
2022-12-01T03:16:00.774Z,8.70
2022-12-01T03:19:04.703Z,8.80
2022-12-01T03:21:37.997Z,8.50
2022-12-01T03:24:10.675Z,6.30
2022-12-01T03:26:41.082Z,8.60
2022-12-01T03:29:14.910Z,9.10
2022-12-01T03:31:48.792Z,15.30
2022-12-01T03:34:20.386Z,15.00
2022-12-01T03:36:54.514Z,8.60
2022-12-01T03:39:29.350Z,8.40
2022-12-01T03:42:02.250Z,7.70
2022-12-01T03:44:37.236Z,6.60
2022-12-01T03:47:10.939Z,6.70
2022-12-01T03:49:40.854Z,7.60
2022-12-01T03:52:30.636Z,6.70
2022-12-01T03:55:15.912Z,7.70
2022-12-01T03:58:05.383Z,6.80
2022-12-01T04:00:33.982Z,6.50
2022-12-01T04:03:06.027Z,6.60
2022-12-01T04:05:35.341Z,6.90
2022-12-01T04:08:03.651Z,7.40
2022-12-01T04:10:33.105Z,7.60
2022-12-01T04:13:01.497Z,6.40
2022-12-01T04:15:29.875Z,6.80
2022-12-01T04:17:57.993Z,5.70
2022-12-01T04:20:26.224Z,7.40
2022-12-01T04:22:54.705Z,5.30
2022-12-01T04:25:22.938Z,6.50
2022-12-01T04:27:51.366Z,7.40
2022-12-01T04:30:19.484Z,5.70
2022-12-01T04:32:47.709Z,6.40
2022-12-01T04:35:16.197Z,6.70
2022-12-01T04:37:44.262Z,6.40
2022-12-01T04:40:12.744Z,5.20
2022-12-01T04:42:40.830Z,6.20
2022-12-01T04:45:09.607Z,6.00
2022-12-01T04:47:37.628Z,5.30
2022-12-01T04:50:06.683Z,6.70
2022-12-01T04:52:37.520Z,5.90
2022-12-01T04:55:06.500Z,5.40
2022-12-01T04:57:34.878Z,5.50
2022-12-01T05:00:13.029Z,5.80
2022-12-01T05:02:44.948Z,6.20
2022-12-01T05:05:14.305Z,6.20
2022-12-01T05:10:13.779Z,4.60
2022-12-01T05:12:41.844Z,5.50
2022-12-01T05:15:10.218Z,6.10
2022-12-01T05:17:38.349Z,5.90
2022-12-01T05:20:26.039Z,5.30
2022-12-01T05:23:05.403Z,5.00
2022-12-01T05:25:34.795Z,4.60
2022-12-01T05:28:03.255Z,4.00
2022-12-01T05:30:31.323Z,4.60
2022-12-01T05:32:59.411Z,5.50
2022-12-01T05:35:27.670Z,5.30
2022-12-01T05:37:55.748Z,5.80
2022-12-01T05:40:23.756Z,5.00
2022-12-01T05:42:51.886Z,5.50
2022-12-01T05:45:19.959Z,5.30
2022-12-01T05:47:48.134Z,6.30
2022-12-01T05:50:16.248Z,6.00
2022-12-01T05:52:44.262Z,5.90
2022-12-01T05:55:12.244Z,6.00
2022-12-01T05:57:40.526Z,6.60
2022-12-01T06:00:09.821Z,6.20
2022-12-01T06:02:42.298Z,5.60
2022-12-01T06:05:10.576Z,6.00
2022-12-01T06:07:40.544Z,5.40
2022-12-01T06:10:09.896Z,5.10
2022-12-01T06:15:07.988Z,4.80
2022-12-01T06:17:40.131Z,5.30
2022-12-01T06:20:10.000Z,6.00
2022-12-01T06:22:38.144Z,6.30
2022-12-01T06:25:07.017Z,6.20
2022-12-01T06:27:35.307Z,5.50
2022-12-01T06:30:04.910Z,6.50
2022-12-01T06:32:32.882Z,5.60
2022-12-01T06:35:00.882Z,7.00
2022-12-01T06:37:29.028Z,5.60
2022-12-01T06:39:56.948Z,5.60
2022-12-01T06:42:25.029Z,6.80
2022-12-01T06:44:53.345Z,6.80
2022-12-01T06:47:21.416Z,7.30
2022-12-01T06:49:49.660Z,7.70
2022-12-01T06:52:17.866Z,7.00
2022-12-01T06:54:46.041Z,8.00
2022-12-01T06:57:14.634Z,8.10
2022-12-01T06:59:43.003Z,7.40
2022-12-01T07:02:14.310Z,8.90
2022-12-01T07:04:42.835Z,6.90
2022-12-01T07:07:12.341Z,9.70
2022-12-01T07:09:40.565Z,10.00
2022-12-01T07:12:08.687Z,10.30
2022-12-01T07:14:36.965Z,11.00
2022-12-01T07:17:04.973Z,11.40
2022-12-01T07:19:33.025Z,10.50
2022-12-01T07:22:01.078Z,10.90
2022-12-01T07:24:30.483Z,12.00
2022-12-01T07:29:26.419Z,12.00
2022-12-01T07:31:54.491Z,13.00
2022-12-01T07:34:22.525Z,12.20
2022-12-01T07:36:50.508Z,12.50
2022-12-01T07:39:18.910Z,12.80
2022-12-01T07:41:46.986Z,12.50
2022-12-01T07:44:15.057Z,12.40
2022-12-01T07:46:43.207Z,11.30
2022-12-01T07:49:14.849Z,13.00
2022-12-01T07:51:42.958Z,11.20
2022-12-01T07:54:14.464Z,12.40
2022-12-01T07:56:43.204Z,11.80
2022-12-01T07:59:12.206Z,11.30
2022-12-01T08:01:44.240Z,11.00
2022-12-01T08:04:13.251Z,11.20
2022-12-01T08:06:41.424Z,11.70
2022-12-01T08:09:09.560Z,11.40
2022-12-01T08:11:37.566Z,11.80
2022-12-01T08:14:05.611Z,13.30
2022-12-01T08:16:33.610Z,12.00
2022-12-01T08:19:01.809Z,11.20
2022-12-01T08:21:29.875Z,11.30
2022-12-01T08:23:58.647Z,12.30
2022-12-01T08:26:27.546Z,13.10
2022-12-01T08:28:55.917Z,13.00
2022-12-01T08:31:28.045Z,12.00
2022-12-01T08:33:57.279Z,13.00
2022-12-01T08:38:55.885Z,12.80
2022-12-01T08:41:25.307Z,13.60
2022-12-01T08:43:58.470Z,12.50
2022-12-01T08:46:28.856Z,12.40
2022-12-01T08:48:57.944Z,12.50
2022-12-01T08:51:27.139Z,12.70
2022-12-01T08:53:57.182Z,12.40
2022-12-01T08:56:37.604Z,11.50
2022-12-01T08:59:06.680Z,12.60
2022-12-01T09:01:35.771Z,12.20
2022-12-01T09:04:08.794Z,12.30
2022-12-01T09:06:42.677Z,13.30
2022-12-01T09:09:16.983Z,12.10
2022-12-01T09:11:46.384Z,13.30
2022-12-01T09:14:16.793Z,14.40
2022-12-01T09:16:46.899Z,16.90
2022-12-01T09:19:20.588Z,14.80
2022-12-01T09:21:52.765Z,16.60
2022-12-01T09:24:20.980Z,15.00
2022-12-01T09:26:49.457Z,15.50
2022-12-01T09:29:17.594Z,15.80
2022-12-01T09:31:45.653Z,13.10
2022-12-01T09:34:17.019Z,15.90
2022-12-01T09:36:46.518Z,15.80
2022-12-01T09:39:17.650Z,15.90
2022-12-01T09:42:03.810Z,15.20
2022-12-01T09:44:40.062Z,15.90
2022-12-01T09:47:19.188Z,14.80
2022-12-01T09:49:57.837Z,16.40
2022-12-01T09:52:28.908Z,17.30
2022-12-01T09:54:59.306Z,18.50
2022-12-01T09:57:33.023Z,17.40
2022-12-01T10:00:09.250Z,15.70
2022-12-01T10:02:46.230Z,17.50
2022-12-01T10:05:24.769Z,18.40
2022-12-01T10:07:58.842Z,18.50
2022-12-01T10:10:48.540Z,18.70
2022-12-01T10:13:28.797Z,17.00
2022-12-01T10:16:24.695Z,19.30
2022-12-01T10:19:21.076Z,19.40
2022-12-01T10:22:26.708Z,16.80
2022-12-01T10:25:19.362Z,17.20
2022-12-01T10:27:59.615Z,15.40
2022-12-01T10:30:27.894Z,17.10
2022-12-01T10:33:02.209Z,17.00
2022-12-01T10:35:37.679Z,13.70
2022-12-01T10:38:15.284Z,4.70
2022-12-01T10:40:44.966Z,3.40
2022-12-01T10:43:14.150Z,3.30
2022-12-01T10:45:44.905Z,3.20
2022-12-01T10:48:17.375Z,3.20
2022-12-01T10:50:50.058Z,3.10
2022-12-01T10:53:28.681Z,3.40
2022-12-01T10:56:18.348Z,3.80
2022-12-01T10:59:08.662Z,3.40
2022-12-01T11:01:37.145Z,3.50
2022-12-01T11:04:25.567Z,3.60
2022-12-01T11:06:53.864Z,4.10
2022-12-01T11:09:28.071Z,3.80
2022-12-01T11:12:04.736Z,3.40
2022-12-01T11:14:46.224Z,3.60
2022-12-01T11:17:40.405Z,3.90
2022-12-01T11:20:35.642Z,3.30
2022-12-01T11:23:20.684Z,2.90
2022-12-01T11:26:23.875Z,3.50
2022-12-01T11:29:07.969Z,3.40
2022-12-01T11:31:51.299Z,3.00
2022-12-01T11:34:26.925Z,2.80
2022-12-01T11:36:58.153Z,2.80
2022-12-01T11:39:34.061Z,2.90
2022-12-01T11:42:14.173Z,2.70
2022-12-01T11:44:52.464Z,3.20
2022-12-01T11:47:24.793Z,2.90
2022-12-01T11:49:58.866Z,3.10
2022-12-01T11:52:36.555Z,3.30
2022-12-01T11:55:11.077Z,3.90
2022-12-01T11:57:43.957Z,3.50
2022-12-01T12:00:28.031Z,4.00
2022-12-01T12:03:08.678Z,4.30
2022-12-01T12:06:31.834Z,4.20
2022-12-01T12:08:53.498Z,4.30
2022-12-01T12:11:33.207Z,4.30
2022-12-01T12:14:20.120Z,4.50
2022-12-01T12:17:00.279Z,4.50
2022-12-01T12:20:06.442Z,4.30
2022-12-01T12:22:56.166Z,4.50
2022-12-01T12:25:49.575Z,4.60
2022-12-01T12:28:23.310Z,4.60
2022-12-01T12:31:09.003Z,3.80
2022-12-01T12:33:58.860Z,3.10
2022-12-01T12:36:42.191Z,3.40
2022-12-01T12:39:19.685Z,5.10
2022-12-01T12:41:55.061Z,3.50
2022-12-01T12:44:44.906Z,3.50
2022-12-01T12:47:33.071Z,3.20
2022-12-01T12:50:15.355Z,3.10
2022-12-01T12:52:47.759Z,3.30
2022-12-01T12:55:33.031Z,3.50
2022-12-01T12:58:27.189Z,3.40
2022-12-01T13:01:01.712Z,3.40
2022-12-01T13:03:47.190Z,3.40
2022-12-01T13:06:27.786Z,3.10
2022-12-01T13:08:58.796Z,3.20
2022-12-01T13:11:36.101Z,3.00
2022-12-01T13:14:28.528Z,3.10
2022-12-01T13:17:03.050Z,3.20
2022-12-01T13:19:35.862Z,3.30
2022-12-01T13:22:07.179Z,3.10
2022-12-01T13:24:35.561Z,3.30
2022-12-01T13:27:19.096Z,3.40
2022-12-01T13:29:51.232Z,3.10
2022-12-01T13:32:40.736Z,2.30
2022-12-01T13:35:24.066Z,2.80
2022-12-01T13:37:52.651Z,3.30
2022-12-01T13:40:20.930Z,3.80
2022-12-01T13:42:54.223Z,3.00
2022-12-01T13:45:22.422Z,2.80
2022-12-01T13:47:56.099Z,3.60
2022-12-01T13:50:36.360Z,3.80
2022-12-01T13:53:11.702Z,5.40
2022-12-01T13:56:00.090Z,5.00
2022-12-01T13:58:34.265Z,6.60
2022-12-01T14:01:20.964Z,5.90
2022-12-01T14:04:03.707Z,5.20
2022-12-01T14:06:49.420Z,5.50
2022-12-01T14:09:39.564Z,6.00
2022-12-01T14:12:30.469Z,5.50
2022-12-01T14:15:22.607Z,4.80
2022-12-01T14:18:22.113Z,5.10
2022-12-01T14:20:50.699Z,4.20
2022-12-01T14:23:24.506Z,4.90
2022-12-01T14:26:20.941Z,4.20
2022-12-01T14:29:00.971Z,4.70
2022-12-01T14:31:50.013Z,4.50
2022-12-01T14:34:21.107Z,4.80
2022-12-01T14:36:54.804Z,5.70
2022-12-01T14:39:32.585Z,4.90
2022-12-01T14:42:04.019Z,5.30
2022-12-01T14:44:42.028Z,4.90
2022-12-01T14:47:21.190Z,5.20
2022-12-01T14:50:03.291Z,5.80
2022-12-01T14:52:36.690Z,5.90
2022-12-01T14:55:16.126Z,5.70
2022-12-01T14:57:51.008Z,7.00
2022-12-01T15:00:25.091Z,6.50
2022-12-01T15:02:56.542Z,7.00
2022-12-01T15:05:29.531Z,6.30
2022-12-01T15:08:25.591Z,5.80
2022-12-01T15:10:56.068Z,5.60
2022-12-01T15:13:33.559Z,5.80
2022-12-01T15:16:13.206Z,5.80
2022-12-01T15:18:41.276Z,5.30
2022-12-01T15:21:09.345Z,5.40
2022-12-01T15:23:38.033Z,8.00
2022-12-01T15:26:07.027Z,7.90
2022-12-01T15:28:36.532Z,7.70
2022-12-01T15:31:12.148Z,7.80
2022-12-01T15:33:50.697Z,6.10
2022-12-01T15:36:18.976Z,4.50
2022-12-01T15:38:48.702Z,5.60
2022-12-01T15:41:29.433Z,4.70
2022-12-01T15:44:03.683Z,4.70
2022-12-01T15:46:34.489Z,5.10
2022-12-01T15:49:16.654Z,5.60
2022-12-01T15:51:45.602Z,4.80
2022-12-01T15:54:26.686Z,6.10
2022-12-01T15:56:56.489Z,6.10
2022-12-01T15:59:26.615Z,5.50
2022-12-01T16:01:56.921Z,6.30
2022-12-01T16:04:28.248Z,5.90
2022-12-01T16:07:02.238Z,6.20
2022-12-01T16:09:35.755Z,6.70
2022-12-01T16:12:23.530Z,5.80
2022-12-01T16:15:00.923Z,5.00
2022-12-01T16:17:45.134Z,4.20
2022-12-01T16:20:19.289Z,4.70
2022-12-01T16:22:51.247Z,5.10
2022-12-01T16:25:30.744Z,4.60
2022-12-01T16:27:59.267Z,5.20
2022-12-01T16:30:35.158Z,5.20
2022-12-01T16:33:15.109Z,5.30
2022-12-01T16:35:43.865Z,4.60
2022-12-01T16:38:22.490Z,4.30
2022-12-01T16:40:53.116Z,4.20
2022-12-01T16:43:23.591Z,4.30
2022-12-01T16:46:00.406Z,3.80
2022-12-01T16:48:29.513Z,4.70
2022-12-01T16:51:02.705Z,4.80
2022-12-01T16:53:31.475Z,5.90
2022-12-01T16:56:01.920Z,7.80
2022-12-01T16:58:30.215Z,10.40
2022-12-01T17:00:58.879Z,7.70
2022-12-01T17:03:28.595Z,7.20
2022-12-01T17:06:00.303Z,7.70
2022-12-01T17:08:28.842Z,10.10
2022-12-01T17:10:57.003Z,8.60
2022-12-01T17:13:25.183Z,9.90
2022-12-01T17:15:55.039Z,8.90
2022-12-01T17:18:25.274Z,10.40
2022-12-01T17:21:01.380Z,9.00
2022-12-01T17:23:29.772Z,9.60
2022-12-01T17:25:57.744Z,9.40
2022-12-01T17:28:26.211Z,8.70
2022-12-01T17:30:54.386Z,9.60
2022-12-01T17:33:22.568Z,9.20
2022-12-01T17:35:50.731Z,9.50
2022-12-01T17:38:18.814Z,10.40
2022-12-01T17:40:59.872Z,11.10
2022-12-01T17:43:28.157Z,10.50
2022-12-01T17:45:56.320Z,8.50
2022-12-01T17:48:24.608Z,10.70
2022-12-01T17:50:52.781Z,10.10
2022-12-01T17:53:20.960Z,9.70
2022-12-01T17:55:49.234Z,10.90
2022-12-01T17:58:21.403Z,10.60
2022-12-01T18:00:53.582Z,11.70
2022-12-01T18:03:21.921Z,9.80
2022-12-01T18:06:01.324Z,11.10
2022-12-01T18:08:31.116Z,11.00
2022-12-01T18:11:07.944Z,11.00
2022-12-01T18:13:39.997Z,9.10
2022-12-01T18:16:13.689Z,10.30
2022-12-01T18:18:42.328Z,9.80
2022-12-01T18:21:13.573Z,8.90
2022-12-01T18:23:41.649Z,8.60
2022-12-01T18:26:15.751Z,10.60
2022-12-01T18:28:44.548Z,9.00
2022-12-01T18:31:15.553Z,11.20
2022-12-01T18:33:45.201Z,13.00
2022-12-01T18:36:17.751Z,12.90
2022-12-01T18:38:47.487Z,11.90
2022-12-01T18:41:16.130Z,9.60
2022-12-01T18:43:44.863Z,10.90
2022-12-01T18:46:15.557Z,9.10
2022-12-01T18:48:48.695Z,9.80
2022-12-01T18:51:17.339Z,10.40
2022-12-01T18:53:45.655Z,11.40
2022-12-01T18:56:15.370Z,10.80
2022-12-01T18:58:43.836Z,10.90
2022-12-01T19:01:32.183Z,12.80
2022-12-01T19:04:01.693Z,9.20
2022-12-01T19:06:30.999Z,8.70
2022-12-01T19:09:01.829Z,8.90
2022-12-01T19:11:29.846Z,9.20
2022-12-01T19:13:57.970Z,8.80
2022-12-01T19:16:26.303Z,8.80
2022-12-01T19:18:54.421Z,10.10
2022-12-01T19:21:23.418Z,8.90
2022-12-01T19:23:52.816Z,8.60
2022-12-01T19:26:22.527Z,10.40
2022-12-01T19:28:51.112Z,11.50
2022-12-01T19:31:23.592Z,12.50
2022-12-01T19:33:54.117Z,13.40
2022-12-01T19:36:24.451Z,11.00
2022-12-01T19:38:53.167Z,10.80
2022-12-01T19:43:53.267Z,11.00
2022-12-01T19:46:23.335Z,12.00
2022-12-01T19:48:57.376Z,13.10
2022-12-01T19:51:28.054Z,13.20
2022-12-01T19:53:56.424Z,12.90
2022-12-01T19:56:25.401Z,12.90
2022-12-01T19:58:53.882Z,15.90
2022-12-01T20:01:22.067Z,14.70
2022-12-01T20:03:52.073Z,17.90
2022-12-01T20:06:29.012Z,17.30
2022-12-01T20:09:00.330Z,16.60
2022-12-01T20:11:35.493Z,15.30
2022-12-01T20:14:07.417Z,16.90
2022-12-01T20:16:35.866Z,15.30
2022-12-01T20:19:05.285Z,14.90
2022-12-01T20:21:36.670Z,14.40
2022-12-01T20:24:07.564Z,13.60
2022-12-01T20:26:44.043Z,14.20
2022-12-01T20:29:16.117Z,14.40
2022-12-01T20:31:45.069Z,14.80
2022-12-01T20:34:17.196Z,14.20
2022-12-01T20:36:45.511Z,14.40
2022-12-01T20:39:14.235Z,14.80
2022-12-01T20:41:44.010Z,16.40
2022-12-01T20:44:13.159Z,14.60
2022-12-01T20:46:41.521Z,15.20
2022-12-01T20:49:09.904Z,14.90
2022-12-01T20:51:38.160Z,15.10
2022-12-01T20:56:56.852Z,16.10
2022-12-01T20:59:24.925Z,16.10
2022-12-01T21:01:53.128Z,15.90
2022-12-01T21:04:21.268Z,15.40
2022-12-01T21:06:50.155Z,15.30
2022-12-01T21:09:18.337Z,16.90
2022-12-01T21:12:07.809Z,15.20
2022-12-01T21:14:45.453Z,17.00
2022-12-01T21:17:19.722Z,16.90
2022-12-01T21:20:01.862Z,13.10
2022-12-01T21:22:30.917Z,17.90
2022-12-01T21:25:16.909Z,14.80
2022-12-01T21:27:49.193Z,12.40
2022-12-01T21:30:25.865Z,14.60
2022-12-01T21:32:55.773Z,16.90
2022-12-01T21:35:25.174Z,16.20
2022-12-01T21:38:04.338Z,16.50
2022-12-01T21:40:32.480Z,15.30
2022-12-01T21:43:16.486Z,14.70
2022-12-01T21:45:44.544Z,13.30
2022-12-01T21:48:18.649Z,13.50
2022-12-01T21:50:50.839Z,12.50
2022-12-01T21:53:25.317Z,16.40
2022-12-01T21:55:56.445Z,15.80
2022-12-01T21:58:27.516Z,16.30
2022-12-01T22:00:58.018Z,18.20
2022-12-01T22:03:31.203Z,15.60
2022-12-01T22:06:29.706Z,18.30
2022-12-01T22:09:01.961Z,14.50
2022-12-01T22:11:31.100Z,15.60
2022-12-01T22:16:45.427Z,14.40
2022-12-01T22:19:32.237Z,15.20
2022-12-01T22:22:10.652Z,13.30
2022-12-01T22:24:53.769Z,14.70
2022-12-01T22:27:39.057Z,12.60
2022-12-01T22:30:07.564Z,11.50
2022-12-01T22:32:57.519Z,13.00
2022-12-01T22:35:59.695Z,13.60
2022-12-01T22:38:39.845Z,12.40
2022-12-01T22:41:16.211Z,15.20
2022-12-01T22:43:57.032Z,13.50
2022-12-01T22:46:31.774Z,11.80
2022-12-01T22:49:11.124Z,12.30
2022-12-01T22:51:56.321Z,12.50
2022-12-01T22:54:28.957Z,14.20
2022-12-01T22:57:15.614Z,13.80
2022-12-01T22:59:44.806Z,12.80
2022-12-01T23:02:21.290Z,12.80
2022-12-01T23:04:55.475Z,12.50
2022-12-01T23:07:26.649Z,14.00
2022-12-01T23:10:04.025Z,13.60
2022-12-01T23:12:34.897Z,11.40
2022-12-01T23:15:25.360Z,13.20
2022-12-01T23:17:53.900Z,11.40
2022-12-01T23:20:30.795Z,13.80
2022-12-01T23:23:02.136Z,15.30
2022-12-01T23:25:30.960Z,11.80
2022-12-01T23:28:03.127Z,12.10
2022-12-01T23:30:31.507Z,11.80
2022-12-01T23:33:11.455Z,11.70
2022-12-01T23:35:58.840Z,11.90
2022-12-01T23:38:37.501Z,13.40
2022-12-01T23:41:08.463Z,13.40
2022-12-01T23:43:43.172Z,12.50
2022-12-01T23:46:12.644Z,14.50
2022-12-01T23:48:47.503Z,16.60
2022-12-01T23:51:31.210Z,18.00
2022-12-01T23:54:10.992Z,20.90
2022-12-01T23:56:39.372Z,19.30
2022-12-01T23:59:13.294Z,22.50
